Terminal Aerodrome Forecast
Issued by NWS Topeka, KS

Home | Current Version | Previous Version | Graphics & Text | Print | Product List | Glossary On
Versions: 1 2 3 4 5 6 7 8 9 10 11 12 13 14 15
000
FTUS43 KTOP 271700
TAFTOP
TAF
KTOP 271730Z 2718/2818 36010KT P6SM SCT250
     FM280000 13005KT P6SM BKN050
     FM281500 12011KT P6SM FEW030=

USA.gov is the U.S. government's official web portal to all federal, state and local government web resources and services.